• Join FlightAware (Why Join?)
  • Login
  • US Flag 
04:08AM EDT


 

Airport Tracker/Info


-or-


 

Live Flight TrackerFlight Track Log ✈ SWA1628 ✈ 20-Jun-2013 ✈ KDAL - KHOU

Flight Track Log - Related Links

Times and Time Zones

All times are in EDT time to prevent confusion due to time zone crossing. See the SWA1628 flight status page for this flight to view local times or setup timezone preferences in your user account.

Time Position Orientation Groundspeed Altitude Reporting Facility
EDT Latitude Longitude Course Direction KTS MPH feet Rate Location/Type
07:24AM 32.8333 -96.8333 140° Southeast 159 183 1,400  Level Dallas / Fort Worth TRACON
07:25AM 32.8000 -96.8000 140° Southeast 222 255 2,900 1,980 Climbing Dallas / Fort Worth TRACON
07:26AM 32.7500 -96.7667 151° Southeast 256 295 5,200 2,520 Climbing Dallas / Fort Worth TRACON
07:27AM 32.6833 -96.7833 192° South 271 312 7,800 2,460 Climbing Dallas / Fort Worth TRACON
07:28AM 32.5669 -96.8317 199° South 307 353 10,900 2,220 Climbing Fort Worth Center
07:29AM 32.4856 -96.8617 197° South 335 386 13,200 2,340 Climbing Fort Worth Center
07:30AM 32.3772 -96.9042 198° South 363 418 15,600 2,340 Climbing Fort Worth Center
07:31AM 32.2856 -96.9367 197° South 376 433 17,900 2,100 Climbing Fort Worth Center
07:32AM 32.1789 -96.9225 174° South 376 433 19,800 1,860 Climbing Fort Worth Center
07:33AM 32.0683 -96.9033 172° South 392 451 21,700 1,920 Climbing Fort Worth Center
07:35AM 31.8300 -96.8583 171° South 419 482 25,600 1,680 Climbing Fort Worth Center
07:36AM 31.7131 -96.8394 172° South 429 494 26,900 1,200 Climbing Fort Worth Center
07:38AM 31.5464 -96.8128 172° South 444 511 28,700 1,200 Climbing Houston Center
07:39AM 31.4181 -96.7919 172° South 456 525 29,900 1,320 Climbing Houston Center
07:40AM 31.2892 -96.7708 172° South 460 529 31,400 1,320 Climbing Houston Center
07:41AM 31.1606 -96.7500 172° South 459 528 32,700 780 Climbing Houston Center
07:42AM 31.0306 -96.7336 174° South 462 532 33,000 120 Climbing Houston Center
07:43AM 30.9014 -96.7161 173° South 461 531 33,000 -1,200 Level Houston Center
07:44AM 30.7717 -96.7036 175° South 459 528 30,600 -3,600 Descending Houston Center
07:45AM 30.6386 -96.6908 175° South 469 540 25,700 -3,780 Descending Houston Center
07:46AM 30.5344 -96.6167 148° Southeast 445 512 22,900 -2,940 Descending Houston Center
07:47AM 30.4639 -96.5100 127° Southeast 415 478 19,800 -3,240 Descending Houston Center
07:48AM 30.3850 -96.4178 135° Southeast 392 451 16,700 -3,000 Descending Houston Center
07:49AM 30.3058 -96.3250 135° Southeast 383 441 14,100 -2,460 Descending Houston Center
07:50AM 30.2339 -96.2411 135° Southeast 367 422 11,700 -1,440 Descending Houston Center
07:51AM 30.1383 -96.1703 147° Southeast 358 412 11,000 -420 Descending Houston Center
07:52AM 30.0694 -96.1342 156° South 353 406 11,000 -360 Level Houston Center
07:53AM 29.9972 -96.0508 135° Southeast 321 369 10,400 -780 Descending Houston Center
07:54AM 29.9622 -95.9497 112° Southeast 298 343 9,300 -1,020 Descending Houston Center
07:55AM 29.9347 -95.8628 110° East 290 334 8,300 -1,020 Descending Houston Center
07:56AM 29.9067 -95.7775 111° Southeast 285 328 7,300 -1,020 Descending Houston Center
07:57AM 29.8775 -95.6911 111° Southeast 282 325 6,300 -1,020 Descending Houston Center
07:58AM 29.8514 -95.6075 110° East 278 320 5,300 -1,020 Descending Houston Center
07:59AM 29.8256 -95.5311 111° Southeast 274 315 4,400 -780 Descending Houston Center
08:00AM 29.7936 -95.4578 117° Southeast 250 288 3,800 -660 Descending Houston Center
08:01AM 29.7500 -95.4033 133° Southeast 234 269 3,000 -1,080 Descending Houston Center
08:02AM 29.7064 -95.3528 135° Southeast 195 224 1,600 -1,140 Descending Houston Center
08:03AM 29.6756 -95.3156 134° Southeast 137 158 800 -720 Descending Houston Center
08:04AM 29.6494 -95.2850 135° Southeast 143 165 100 -660 Descending Houston Center
08:06AM 29.6454 -95.2789 121° Southeast  Level Estimated